createdAt,value
2023-01-18T00:02:15.166Z,3.05
2023-01-18T00:04:42.444Z,3.13
2023-01-18T00:07:09.353Z,2.58
2023-01-18T00:09:36.166Z,2.83
2023-01-18T00:12:03.031Z,2.80
2023-01-18T00:14:29.951Z,2.75
2023-01-18T00:16:56.749Z,3.22
2023-01-18T00:19:23.595Z,2.83
2023-01-18T00:21:55.724Z,2.53
2023-01-18T00:24:22.892Z,2.70
2023-01-18T00:26:50.247Z,2.70
2023-01-18T00:29:17.230Z,2.70
2023-01-18T00:31:44.120Z,2.90
2023-01-18T00:34:11.358Z,2.83
2023-01-18T00:36:38.372Z,3.00
2023-01-18T00:39:05.062Z,2.97
2023-01-18T00:41:31.807Z,2.65
2023-01-18T00:43:58.541Z,2.80
2023-01-18T00:46:27.459Z,2.90
2023-01-18T00:48:55.724Z,2.83
2023-01-18T00:51:24.683Z,2.80
2023-01-18T00:53:52.077Z,2.92
2023-01-18T00:56:21.611Z,2.72
2023-01-18T00:58:48.499Z,2.97
2023-01-18T01:01:15.918Z,2.92
2023-01-18T01:04:01.477Z,3.03
2023-01-18T01:06:45.393Z,2.42
2023-01-18T01:09:25.201Z,2.67
2023-01-18T01:12:11.418Z,2.83
2023-01-18T01:14:59.944Z,2.75
2023-01-18T01:17:47.023Z,2.88
2023-01-18T01:20:32.858Z,2.50
2023-01-18T01:23:34.457Z,2.90
2023-01-18T01:26:08.290Z,2.70
2023-01-18T01:28:36.386Z,2.60
2023-01-18T01:31:05.029Z,2.55
2023-01-18T01:33:33.413Z,2.80
2023-01-18T01:36:03.375Z,2.65
2023-01-18T01:38:30.540Z,2.78
2023-01-18T01:40:59.515Z,2.70
2023-01-18T01:43:49.650Z,2.60
2023-01-18T01:46:40.855Z,2.70
2023-01-18T01:49:29.939Z,2.67
2023-01-18T01:52:03.965Z,2.90
2023-01-18T01:55:01.664Z,3.00
2023-01-18T01:57:43.685Z,2.75
2023-01-18T02:00:19.639Z,3.03
2023-01-18T02:02:55.714Z,2.47
2023-01-18T02:05:23.903Z,2.63
2023-01-18T02:07:50.909Z,2.50
2023-01-18T02:10:18.013Z,2.55
2023-01-18T02:12:48.677Z,2.28
2023-01-18T02:15:15.902Z,2.60
2023-01-18T02:17:54.315Z,2.63
2023-01-18T02:20:27.288Z,2.50
2023-01-18T02:23:39.509Z,2.80
2023-01-18T02:26:40.263Z,2.40
2023-01-18T02:29:33.403Z,2.47
2023-01-18T02:32:20.361Z,2.53
2023-01-18T02:35:06.768Z,2.42
2023-01-18T02:37:55.486Z,2.60
2023-01-18T02:40:32.203Z,2.47
2023-01-18T02:43:23.980Z,2.90
2023-01-18T02:46:09.409Z,2.65
2023-01-18T02:48:38.576Z,2.30
2023-01-18T02:51:06.229Z,2.30
2023-01-18T02:53:38.421Z,2.08
2023-01-18T02:56:16.391Z,2.30
2023-01-18T02:59:05.178Z,2.30
2023-01-18T03:02:03.175Z,2.50
2023-01-18T03:04:41.952Z,2.33
2023-01-18T03:07:13.910Z,2.15
2023-01-18T03:09:42.593Z,2.60
2023-01-18T03:12:28.546Z,2.13
2023-01-18T03:15:02.530Z,2.25
2023-01-18T03:17:36.208Z,2.17
2023-01-18T03:20:09.218Z,2.55
2023-01-18T03:23:17.402Z,2.03
2023-01-18T03:25:47.021Z,2.17
2023-01-18T03:28:45.083Z,2.53
2023-01-18T03:31:35.387Z,2.20
2023-01-18T03:34:14.134Z,2.30
2023-01-18T03:36:49.339Z,2.45
2023-01-18T03:39:36.375Z,2.08
2023-01-18T03:42:09.327Z,2.40
2023-01-18T03:44:39.899Z,2.50
2023-01-18T03:47:07.914Z,2.42
2023-01-18T03:49:35.454Z,2.20
2023-01-18T03:52:08.851Z,2.30
2023-01-18T03:54:48.495Z,2.60
2023-01-18T03:57:18.482Z,2.47
2023-01-18T03:59:46.067Z,2.55
2023-01-18T04:02:13.686Z,2.30
2023-01-18T04:04:40.671Z,2.17
2023-01-18T04:07:07.462Z,2.45
2023-01-18T04:09:34.299Z,2.33
2023-01-18T04:12:01.145Z,2.53
2023-01-18T04:14:27.829Z,1.95
2023-01-18T04:16:54.705Z,2.15
2023-01-18T04:19:21.433Z,2.17
2023-01-18T04:21:48.206Z,2.10
2023-01-18T04:24:16.386Z,2.17
2023-01-18T04:26:43.247Z,2.13
2023-01-18T04:29:10.516Z,2.28
2023-01-18T04:31:37.504Z,2.33
2023-01-18T04:34:04.419Z,2.45
2023-01-18T04:36:31.676Z,2.00
2023-01-18T04:38:59.333Z,1.98
2023-01-18T04:41:26.212Z,2.10
2023-01-18T04:43:53.070Z,2.55
2023-01-18T04:46:21.320Z,2.13
2023-01-18T04:48:52.535Z,2.17
2023-01-18T04:51:20.002Z,2.30
2023-01-18T04:53:47.710Z,1.95
2023-01-18T04:56:14.509Z,2.28
2023-01-18T04:58:41.346Z,2.13
2023-01-18T05:01:09.647Z,2.03
2023-01-18T05:03:38.379Z,2.50
2023-01-18T05:06:10.699Z,2.30
2023-01-18T05:08:41.151Z,2.00
2023-01-18T05:11:10.306Z,2.10
2023-01-18T05:13:37.698Z,2.33
2023-01-18T05:16:06.304Z,2.17
2023-01-18T05:18:33.360Z,2.40
2023-01-18T05:21:00.185Z,2.00
2023-01-18T05:23:27.030Z,2.13
2023-01-18T05:25:55.192Z,2.28
2023-01-18T05:28:23.739Z,2.55
2023-01-18T05:30:51.327Z,2.65
2023-01-18T05:33:19.271Z,2.22
2023-01-18T05:35:53.273Z,2.30
2023-01-18T05:38:21.652Z,2.10
2023-01-18T05:40:52.204Z,2.55
2023-01-18T05:43:23.897Z,2.63
2023-01-18T05:48:17.703Z,2.63
2023-01-18T05:50:46.424Z,2.20
2023-01-18T05:53:15.098Z,1.95
2023-01-18T05:55:41.907Z,2.40
2023-01-18T05:58:09.222Z,2.42
2023-01-18T06:00:36.018Z,2.42
2023-01-18T06:03:03.122Z,2.08
2023-01-18T06:05:29.964Z,2.40
2023-01-18T06:07:56.806Z,2.30
2023-01-18T06:10:23.814Z,2.10
2023-01-18T06:12:50.875Z,2.40
2023-01-18T06:15:17.732Z,2.50
2023-01-18T06:17:47.048Z,2.20
2023-01-18T06:20:14.608Z,2.60
2023-01-18T06:22:41.870Z,2.40
2023-01-18T06:25:10.251Z,2.20
2023-01-18T06:27:40.350Z,2.10
2023-01-18T06:30:08.220Z,2.70
2023-01-18T06:32:35.042Z,2.13
2023-01-18T06:35:02.162Z,2.40
2023-01-18T06:37:28.983Z,2.40
2023-01-18T06:39:55.863Z,2.92
2023-01-18T06:42:22.729Z,2.58
2023-01-18T06:44:49.506Z,2.65
2023-01-18T06:47:19.976Z,2.40
2023-01-18T06:49:50.222Z,2.25
2023-01-18T06:52:17.869Z,2.80
2023-01-18T06:54:44.861Z,2.38
2023-01-18T06:57:12.279Z,2.50
2023-01-18T06:59:39.836Z,2.65
2023-01-18T07:02:07.337Z,2.88
2023-01-18T07:04:37.898Z,2.28
2023-01-18T07:07:04.799Z,2.83
2023-01-18T07:09:31.589Z,2.30
2023-01-18T07:11:58.521Z,2.15
2023-01-18T07:14:25.291Z,2.70
2023-01-18T07:16:52.141Z,2.47
2023-01-18T07:19:18.996Z,2.65
2023-01-18T07:21:45.817Z,2.40
2023-01-18T07:24:12.741Z,2.53
2023-01-18T07:26:39.558Z,2.63
2023-01-18T07:29:06.428Z,2.47
2023-01-18T07:31:33.252Z,2.22
2023-01-18T07:34:00.104Z,2.20
2023-01-18T07:36:26.911Z,2.22
2023-01-18T07:38:53.847Z,2.20
2023-01-18T07:41:22.042Z,2.33
2023-01-18T07:43:51.746Z,2.45
2023-01-18T07:46:20.801Z,2.30
2023-01-18T07:48:48.389Z,2.42
2023-01-18T07:51:15.587Z,2.05
2023-01-18T07:53:42.499Z,2.17
2023-01-18T07:56:13.776Z,2.30
2023-01-18T07:58:40.740Z,2.15
2023-01-18T08:01:18.648Z,2.17
2023-01-18T08:03:47.932Z,2.65
2023-01-18T08:06:18.539Z,2.13
2023-01-18T08:08:45.852Z,2.65
2023-01-18T08:11:12.785Z,2.55
2023-01-18T08:13:39.901Z,2.42
2023-01-18T08:16:08.589Z,2.58
2023-01-18T08:18:35.786Z,2.45
2023-01-18T08:21:02.657Z,2.17
2023-01-18T08:23:29.525Z,2.00
2023-01-18T08:26:00.907Z,2.05
2023-01-18T08:28:27.753Z,2.13
2023-01-18T08:31:05.994Z,2.78
2023-01-18T08:33:36.764Z,2.20
2023-01-18T08:36:03.743Z,2.15
2023-01-18T08:38:30.600Z,2.90
2023-01-18T08:40:57.393Z,2.20
2023-01-18T08:43:24.218Z,2.60
2023-01-18T08:45:51.815Z,2.55
2023-01-18T08:48:18.632Z,2.63
2023-01-18T08:50:46.366Z,2.55
2023-01-18T08:53:13.378Z,2.60
2023-01-18T08:55:40.524Z,2.60
2023-01-18T08:58:07.387Z,2.10
2023-01-18T09:00:34.276Z,2.40
2023-01-18T09:03:02.727Z,2.40
2023-01-18T09:05:30.119Z,2.35
2023-01-18T09:07:58.037Z,2.25
2023-01-18T09:10:24.880Z,2.60
2023-01-18T09:12:53.666Z,2.60
2023-01-18T09:15:20.719Z,2.00
2023-01-18T09:17:47.594Z,2.28
2023-01-18T09:20:16.056Z,2.30
2023-01-18T09:22:45.513Z,2.90
2023-01-18T09:25:12.357Z,1.85
2023-01-18T09:27:39.278Z,2.50
2023-01-18T09:30:07.256Z,2.83
2023-01-18T09:32:34.034Z,2.95
2023-01-18T09:35:01.169Z,2.80
2023-01-18T09:37:28.039Z,2.83
2023-01-18T09:39:54.810Z,3.42
2023-01-18T09:42:31.047Z,2.50
2023-01-18T09:45:00.476Z,2.60
2023-01-18T09:47:32.040Z,2.53
2023-01-18T09:52:55.049Z,2.55
2023-01-18T09:55:28.672Z,2.22
2023-01-18T09:58:22.631Z,2.80
2023-01-18T10:00:49.758Z,2.50
2023-01-18T10:03:28.857Z,2.40
2023-01-18T10:06:10.434Z,2.25
2023-01-18T10:08:45.600Z,2.50
2023-01-18T10:11:36.537Z,2.40
2023-01-18T10:14:06.789Z,2.63
2023-01-18T10:16:35.462Z,2.70
2023-01-18T10:19:02.723Z,2.75
2023-01-18T10:21:58.005Z,2.75
2023-01-18T10:24:30.582Z,2.38
2023-01-18T10:27:49.540Z,2.42
2023-01-18T10:30:46.002Z,2.60
2023-01-18T10:33:23.574Z,2.92
2023-01-18T10:35:58.301Z,2.72
2023-01-18T10:38:28.936Z,2.63
2023-01-18T10:41:01.388Z,2.50
2023-01-18T10:43:31.834Z,2.67
2023-01-18T10:45:59.023Z,2.67
2023-01-18T10:48:32.133Z,2.50
2023-01-18T10:51:02.530Z,2.35
2023-01-18T10:53:35.196Z,2.47
2023-01-18T10:56:16.997Z,2.40
2023-01-18T10:59:01.080Z,2.80
2023-01-18T11:01:33.603Z,2.47
2023-01-18T11:04:16.710Z,2.78
2023-01-18T11:06:50.442Z,2.40
2023-01-18T11:10:09.493Z,2.33
2023-01-18T11:12:44.300Z,2.30
2023-01-18T11:15:14.163Z,2.10
2023-01-18T11:17:46.907Z,2.63
2023-01-18T11:20:20.597Z,2.55
2023-01-18T11:22:53.520Z,2.00
2023-01-18T11:25:21.063Z,2.50
2023-01-18T11:27:49.497Z,2.45
2023-01-18T11:30:24.914Z,2.30
2023-01-18T11:32:52.335Z,2.10
2023-01-18T11:35:32.818Z,2.45
2023-01-18T11:38:02.221Z,2.83
2023-01-18T11:40:31.355Z,2.47
2023-01-18T11:43:09.848Z,2.78
2023-01-18T11:45:45.265Z,2.88
2023-01-18T11:48:38.519Z,2.22
2023-01-18T11:51:45.779Z,2.03
2023-01-18T11:54:47.141Z,2.60
2023-01-18T11:57:17.312Z,2.72
2023-01-18T11:59:46.221Z,2.33
2023-01-18T12:02:36.536Z,2.40
2023-01-18T12:05:28.722Z,2.20
2023-01-18T12:08:26.935Z,2.38
2023-01-18T12:11:45.496Z,2.58
2023-01-18T12:14:29.505Z,2.30
2023-01-18T12:17:18.536Z,2.40
2023-01-18T12:20:01.980Z,2.92
2023-01-18T12:22:41.022Z,1.95
2023-01-18T12:25:21.333Z,2.20
2023-01-18T12:28:02.568Z,2.50
2023-01-18T12:30:35.365Z,1.80
2023-01-18T12:33:42.064Z,2.40
2023-01-18T12:36:34.537Z,2.47
2023-01-18T12:39:08.756Z,3.05
2023-01-18T12:41:52.114Z,2.28
2023-01-18T12:44:25.764Z,2.20
2023-01-18T12:47:09.225Z,2.10
2023-01-18T12:49:42.931Z,2.20
2023-01-18T12:52:18.871Z,2.17
2023-01-18T12:54:50.242Z,2.03
2023-01-18T12:57:18.713Z,2.50
2023-01-18T12:59:57.515Z,2.40
2023-01-18T13:02:38.849Z,2.00
2023-01-18T13:05:46.063Z,1.92
2023-01-18T13:08:24.078Z,2.00
2023-01-18T13:10:51.966Z,1.67
2023-01-18T13:13:25.675Z,1.88
2023-01-18T13:16:22.003Z,1.80
2023-01-18T13:19:06.085Z,1.92
2023-01-18T13:22:20.842Z,1.77
2023-01-18T13:25:26.276Z,1.92
2023-01-18T13:28:05.612Z,1.50
2023-01-18T13:30:44.061Z,1.75
2023-01-18T13:33:14.890Z,1.58
2023-01-18T13:35:51.995Z,1.80
2023-01-18T13:38:27.544Z,1.55
2023-01-18T13:41:03.907Z,1.60
2023-01-18T13:44:01.492Z,1.80
2023-01-18T13:46:30.188Z,1.70
2023-01-18T13:49:36.299Z,1.48
2023-01-18T13:52:30.571Z,1.50
2023-01-18T13:55:01.745Z,1.40
2023-01-18T13:57:31.093Z,1.80
2023-01-18T13:59:58.351Z,1.67
2023-01-18T14:02:28.034Z,1.35
2023-01-18T14:05:17.528Z,1.40
2023-01-18T14:07:47.745Z,1.30
2023-01-18T14:10:25.813Z,1.35
2023-01-18T14:12:54.557Z,1.30
2023-01-18T14:15:45.331Z,1.63
2023-01-18T14:18:25.530Z,1.53
2023-01-18T14:21:14.455Z,1.27
2023-01-18T14:24:09.450Z,1.40
2023-01-18T14:26:39.783Z,1.48
2023-01-18T14:29:43.700Z,1.50
2023-01-18T14:32:18.467Z,1.52
2023-01-18T14:34:45.225Z,1.50
2023-01-18T14:37:28.887Z,1.40
2023-01-18T14:40:16.994Z,1.60
2023-01-18T14:43:00.731Z,1.35
2023-01-18T14:45:37.018Z,1.60
2023-01-18T14:48:16.919Z,1.40
2023-01-18T14:50:46.777Z,1.55
2023-01-18T14:53:26.750Z,1.25
2023-01-18T14:56:08.896Z,1.40
2023-01-18T14:58:41.825Z,1.30
2023-01-18T15:01:33.240Z,1.15
2023-01-18T15:04:02.312Z,1.40
2023-01-18T15:06:45.842Z,1.80
2023-01-18T15:09:13.373Z,1.30
2023-01-18T15:11:42.649Z,1.20
2023-01-18T15:14:17.765Z,1.33
2023-01-18T15:16:46.852Z,1.45
2023-01-18T15:19:41.374Z,1.45
2023-01-18T15:22:13.129Z,1.33
2023-01-18T15:24:42.146Z,1.30
2023-01-18T15:27:18.027Z,1.20
2023-01-18T15:29:51.276Z,1.40
2023-01-18T15:32:21.748Z,1.33
2023-01-18T15:34:51.284Z,1.20
2023-01-18T15:37:33.723Z,1.60
2023-01-18T15:40:03.513Z,1.40
2023-01-18T15:42:42.705Z,1.40
2023-01-18T15:45:38.249Z,1.30
2023-01-18T15:48:10.552Z,1.63
2023-01-18T15:50:44.326Z,1.60
2023-01-18T15:55:50.580Z,1.60
2023-01-18T16:00:03.930Z,1.30
2023-01-18T16:02:32.345Z,1.52
2023-01-18T16:05:22.912Z,1.73
2023-01-18T16:07:53.111Z,1.33
2023-01-18T16:10:30.281Z,1.25
2023-01-18T16:13:21.010Z,1.23
2023-01-18T16:16:15.306Z,1.70
2023-01-18T16:19:07.352Z,1.63
2023-01-18T16:21:41.747Z,1.25
2023-01-18T16:24:18.655Z,1.63
2023-01-18T16:26:46.290Z,1.70
2023-01-18T16:29:13.460Z,1.30
2023-01-18T16:31:43.373Z,1.40
2023-01-18T16:34:23.758Z,1.50
2023-01-18T16:36:52.550Z,1.25
2023-01-18T16:39:21.075Z,1.52
2023-01-18T16:41:57.269Z,1.48
2023-01-18T16:44:25.929Z,1.50
2023-01-18T16:46:54.698Z,1.20
2023-01-18T16:49:21.561Z,1.58
2023-01-18T16:51:50.552Z,1.40
2023-01-18T16:54:17.700Z,1.45
2023-01-18T16:56:47.596Z,1.45
2023-01-18T16:59:16.092Z,1.80
2023-01-18T17:01:43.491Z,1.40
2023-01-18T17:04:12.571Z,1.60
2023-01-18T17:06:40.886Z,1.30
2023-01-18T17:09:25.297Z,1.35
2023-01-18T17:11:52.775Z,1.38
2023-01-18T17:14:20.506Z,1.38
2023-01-18T17:16:49.090Z,1.40
2023-01-18T17:19:18.763Z,1.50
2023-01-18T17:21:47.882Z,1.35
2023-01-18T17:24:15.268Z,1.50
2023-01-18T17:26:43.418Z,1.30
2023-01-18T17:29:17.702Z,1.40
2023-01-18T17:31:52.202Z,1.48
2023-01-18T17:34:27.469Z,1.60
2023-01-18T17:36:57.022Z,1.23
2023-01-18T17:39:31.825Z,1.45
2023-01-18T17:42:12.530Z,1.35
2023-01-18T17:44:43.588Z,1.70
2023-01-18T17:47:10.639Z,1.95
2023-01-18T17:49:37.418Z,2.00
2023-01-18T17:52:04.530Z,1.85
2023-01-18T17:54:31.448Z,1.77
2023-01-18T17:56:58.310Z,1.70
2023-01-18T17:59:25.063Z,2.00
2023-01-18T18:01:51.967Z,1.48
2023-01-18T18:04:18.957Z,1.63
2023-01-18T18:06:53.685Z,1.70
2023-01-18T18:09:20.950Z,1.48
2023-01-18T18:11:47.966Z,1.75
2023-01-18T18:14:15.072Z,1.67
2023-01-18T18:16:43.690Z,1.52
2023-01-18T18:19:14.762Z,1.40
2023-01-18T18:21:42.633Z,1.60
2023-01-18T18:24:09.534Z,1.45
2023-01-18T18:26:36.569Z,1.60
2023-01-18T18:29:04.140Z,1.70
2023-01-18T18:31:31.202Z,1.75
2023-01-18T18:33:58.153Z,1.38
2023-01-18T18:36:27.384Z,1.65
2023-01-18T18:38:54.533Z,1.52
2023-01-18T18:41:21.436Z,1.58
2023-01-18T18:43:48.300Z,1.67
2023-01-18T18:46:15.578Z,1.40
2023-01-18T18:48:42.648Z,1.70
2023-01-18T18:51:09.960Z,1.42
2023-01-18T18:53:40.807Z,1.60
2023-01-18T18:56:10.220Z,1.42
2023-01-18T18:58:38.359Z,1.50
2023-01-18T19:01:05.966Z,1.60
2023-01-18T19:03:33.771Z,1.55
2023-01-18T19:06:00.629Z,1.38
2023-01-18T19:08:27.495Z,2.00
2023-01-18T19:10:56.086Z,1.73
2023-01-18T19:13:22.921Z,1.58
2023-01-18T19:15:51.304Z,1.58
2023-01-18T19:18:18.374Z,1.50
2023-01-18T19:20:45.245Z,1.88
2023-01-18T19:23:12.216Z,1.48
2023-01-18T19:25:39.599Z,1.50
2023-01-18T19:28:06.925Z,1.48
2023-01-18T19:30:33.822Z,1.70
2023-01-18T19:33:01.164Z,1.55
2023-01-18T19:35:28.725Z,1.50
2023-01-18T19:37:55.738Z,1.88
2023-01-18T19:40:22.499Z,1.35
2023-01-18T19:42:55.619Z,1.58
2023-01-18T19:45:28.210Z,1.63
2023-01-18T19:47:57.011Z,1.50
2023-01-18T19:50:24.472Z,1.70
2023-01-18T19:52:52.108Z,1.42
2023-01-18T19:55:20.877Z,1.70
2023-01-18T19:57:48.311Z,1.67
2023-01-18T20:00:18.151Z,1.50
2023-01-18T20:02:48.918Z,1.65
2023-01-18T20:05:15.736Z,1.73
2023-01-18T20:07:42.591Z,1.95
2023-01-18T20:10:10.351Z,1.85
2023-01-18T20:12:38.359Z,1.70
2023-01-18T20:15:06.209Z,1.83
2023-01-18T20:17:33.059Z,1.75
2023-01-18T20:19:59.826Z,1.88
2023-01-18T20:22:26.778Z,2.10
2023-01-18T20:24:54.169Z,1.80
2023-01-18T20:27:20.950Z,1.92
2023-01-18T20:29:47.841Z,1.92
2023-01-18T20:32:17.181Z,1.90
2023-01-18T20:34:46.914Z,1.80
2023-01-18T20:37:15.611Z,1.63
2023-01-18T20:39:42.457Z,1.90
2023-01-18T20:42:09.444Z,1.70
2023-01-18T20:44:36.390Z,1.73
2023-01-18T20:47:03.395Z,2.00
2023-01-18T20:49:37.603Z,1.70
2023-01-18T20:52:06.851Z,1.83
2023-01-18T20:54:36.084Z,2.08
2023-01-18T20:57:07.036Z,2.33
2023-01-18T20:59:33.939Z,1.65
2023-01-18T21:02:01.062Z,2.13
2023-01-18T21:04:28.131Z,2.17
2023-01-18T21:06:57.187Z,1.90
2023-01-18T21:09:25.255Z,2.00
2023-01-18T21:11:52.165Z,2.20
2023-01-18T21:14:18.994Z,1.83
2023-01-18T21:16:46.106Z,2.00
2023-01-18T21:19:13.917Z,2.38
2023-01-18T21:21:46.548Z,2.30
2023-01-18T21:24:13.459Z,2.13
2023-01-18T21:26:40.219Z,2.10
2023-01-18T21:29:07.122Z,2.03
2023-01-18T21:31:34.046Z,1.98
2023-01-18T21:34:01.044Z,2.50
2023-01-18T21:36:27.884Z,2.00
2023-01-18T21:38:55.066Z,2.40
2023-01-18T21:41:40.573Z,1.92
2023-01-18T21:44:26.124Z,2.50
2023-01-18T21:46:52.907Z,2.10
2023-01-18T21:52:46.636Z,2.13
2023-01-18T21:55:15.241Z,2.17
2023-01-18T21:57:42.164Z,2.20
2023-01-18T22:00:10.060Z,2.05
2023-01-18T22:02:37.455Z,1.98
2023-01-18T22:05:04.991Z,2.35
2023-01-18T22:07:34.177Z,1.63
2023-01-18T22:10:05.664Z,2.42
2023-01-18T22:12:34.914Z,2.30
2023-01-18T22:15:03.020Z,2.28
2023-01-18T22:17:29.952Z,2.28
2023-01-18T22:19:57.010Z,2.40
2023-01-18T22:22:23.885Z,2.30
2023-01-18T22:24:50.664Z,2.05
2023-01-18T22:27:17.480Z,2.15
2023-01-18T22:29:44.253Z,1.80
2023-01-18T22:32:11.009Z,1.83
2023-01-18T22:34:37.832Z,2.15
2023-01-18T22:37:05.677Z,2.63
2023-01-18T22:39:32.418Z,2.10
2023-01-18T22:41:59.295Z,2.67
2023-01-18T22:44:26.055Z,2.47
2023-01-18T22:46:52.981Z,2.30
2023-01-18T22:49:19.829Z,2.63
2023-01-18T22:51:46.586Z,2.20
2023-01-18T22:54:13.509Z,1.83
2023-01-18T22:56:40.309Z,1.60
2023-01-18T22:59:07.797Z,2.20
2023-01-18T23:01:34.790Z,1.90
2023-01-18T23:04:03.438Z,1.95
2023-01-18T23:06:42.466Z,1.88
2023-01-18T23:09:10.048Z,1.90
2023-01-18T23:11:37.469Z,1.90
2023-01-18T23:14:23.870Z,2.25
2023-01-18T23:17:09.766Z,2.22
2023-01-18T23:19:36.931Z,2.20
2023-01-18T23:22:07.073Z,2.22
2023-01-18T23:24:35.247Z,2.40
2023-01-18T23:27:02.875Z,1.92
2023-01-18T23:29:29.659Z,2.42
2023-01-18T23:31:57.508Z,1.95
2023-01-18T23:34:25.390Z,2.00
2023-01-18T23:36:52.514Z,2.10
2023-01-18T23:39:38.273Z,2.42
2023-01-18T23:42:23.769Z,2.15
2023-01-18T23:45:09.051Z,1.83
2023-01-18T23:47:54.480Z,2.13
2023-01-18T23:50:40.305Z,2.28
2023-01-18T23:53:32.546Z,2.13
2023-01-18T23:55:59.990Z,2.58
2023-01-18T23:58:27.591Z,1.88
